sensor_id;sensor_type;location;lat;lon;timestamp;P1;durP1;ratioP1;P2;durP2;ratioP2
23260;SDS011;11799;47.740;-3.390;2023-08-20T00:00:10;12.18;;;2.40;;
23260;SDS011;11799;47.740;-3.390;2023-08-20T00:02:42;12.00;;;2.30;;
23260;SDS011;11799;47.740;-3.390;2023-08-20T00:05:10;10.88;;;2.55;;
23260;SDS011;11799;47.740;-3.390;2023-08-20T00:07:36;7.75;;;2.45;;
23260;SDS011;11799;47.740;-3.390;2023-08-20T00:10:02;8.52;;;2.47;;
23260;SDS011;11799;47.740;-3.390;2023-08-20T00:12:31;8.00;;;2.17;;
23260;SDS011;11799;47.740;-3.390;2023-08-20T00:15:01;9.50;;;2.40;;
23260;SDS011;11799;47.740;-3.390;2023-08-20T00:17:31;8.30;;;2.55;;
23260;SDS011;11799;47.740;-3.390;2023-08-20T00:19:58;13.32;;;2.53;;
23260;SDS011;11799;47.740;-3.390;2023-08-20T00:22:24;8.35;;;2.40;;
23260;SDS011;11799;47.740;-3.390;2023-08-20T00:24:51;10.63;;;2.22;;
23260;SDS011;11799;47.740;-3.390;2023-08-20T00:27:18;7.43;;;2.17;;
23260;SDS011;11799;47.740;-3.390;2023-08-20T00:29:44;7.85;;;2.28;;
23260;SDS011;11799;47.740;-3.390;2023-08-20T00:32:10;8.23;;;2.63;;
23260;SDS011;11799;47.740;-3.390;2023-08-20T00:34:36;7.78;;;2.78;;
23260;SDS011;11799;47.740;-3.390;2023-08-20T00:37:01;6.55;;;1.98;;
23260;SDS011;11799;47.740;-3.390;2023-08-20T00:39:28;9.88;;;2.42;;
23260;SDS011;11799;47.740;-3.390;2023-08-20T00:41:54;8.93;;;2.45;;
23260;SDS011;11799;47.740;-3.390;2023-08-20T00:44:20;7.25;;;2.33;;
23260;SDS011;11799;47.740;-3.390;2023-08-20T00:46:47;7.50;;;2.17;;
23260;SDS011;11799;47.740;-3.390;2023-08-20T00:49:13;9.57;;;2.10;;
23260;SDS011;11799;47.740;-3.390;2023-08-20T00:51:39;6.88;;;2.13;;
23260;SDS011;11799;47.740;-3.390;2023-08-20T00:54:05;12.35;;;2.58;;
23260;SDS011;11799;47.740;-3.390;2023-08-20T00:56:32;7.10;;;2.05;;
23260;SDS011;11799;47.740;-3.390;2023-08-20T00:58:57;9.55;;;2.20;;
23260;SDS011;11799;47.740;-3.390;2023-08-20T01:01:24;7.63;;;2.15;;
23260;SDS011;11799;47.740;-3.390;2023-08-20T01:03:50;8.52;;;2.20;;
23260;SDS011;11799;47.740;-3.390;2023-08-20T01:08:51;7.97;;;2.20;;
23260;SDS011;11799;47.740;-3.390;2023-08-20T01:11:26;7.75;;;2.33;;
23260;SDS011;11799;47.740;-3.390;2023-08-20T01:13:58;7.00;;;2.15;;
23260;SDS011;11799;47.740;-3.390;2023-08-20T01:16:25;5.63;;;1.65;;
23260;SDS011;11799;47.740;-3.390;2023-08-20T01:18:52;6.47;;;1.95;;
23260;SDS011;11799;47.740;-3.390;2023-08-20T01:21:42;6.03;;;2.10;;
23260;SDS011;11799;47.740;-3.390;2023-08-20T01:24:10;12.82;;;3.03;;
23260;SDS011;11799;47.740;-3.390;2023-08-20T01:29:25;5.97;;;2.30;;
23260;SDS011;11799;47.740;-3.390;2023-08-20T01:31:53;9.43;;;2.15;;
23260;SDS011;11799;47.740;-3.390;2023-08-20T01:34:19;10.45;;;2.22;;
23260;SDS011;11799;47.740;-3.390;2023-08-20T01:36:46;7.00;;;2.30;;
23260;SDS011;11799;47.740;-3.390;2023-08-20T01:39:12;5.50;;;2.08;;
23260;SDS011;11799;47.740;-3.390;2023-08-20T01:41:38;11.75;;;2.42;;
23260;SDS011;11799;47.740;-3.390;2023-08-20T01:44:05;9.35;;;2.35;;
23260;SDS011;11799;47.740;-3.390;2023-08-20T01:46:31;6.07;;;1.92;;
23260;SDS011;11799;47.740;-3.390;2023-08-20T01:48:57;8.25;;;2.20;;
23260;SDS011;11799;47.740;-3.390;2023-08-20T01:51:23;8.45;;;2.15;;
23260;SDS011;11799;47.740;-3.390;2023-08-20T01:53:49;8.70;;;2.40;;
23260;SDS011;11799;47.740;-3.390;2023-08-20T01:56:15;11.95;;;2.55;;
23260;SDS011;11799;47.740;-3.390;2023-08-20T01:58:41;7.97;;;2.72;;
23260;SDS011;11799;47.740;-3.390;2023-08-20T02:01:07;8.77;;;2.30;;
23260;SDS011;11799;47.740;-3.390;2023-08-20T02:03:33;8.50;;;2.42;;
23260;SDS011;11799;47.740;-3.390;2023-08-20T02:06:01;8.27;;;2.22;;
23260;SDS011;11799;47.740;-3.390;2023-08-20T02:08:27;8.23;;;2.00;;
23260;SDS011;11799;47.740;-3.390;2023-08-20T02:11:02;7.40;;;2.17;;
23260;SDS011;11799;47.740;-3.390;2023-08-20T02:13:28;7.80;;;2.60;;
23260;SDS011;11799;47.740;-3.390;2023-08-20T02:16:00;7.22;;;2.40;;
23260;SDS011;11799;47.740;-3.390;2023-08-20T02:18:28;6.20;;;2.42;;
23260;SDS011;11799;47.740;-3.390;2023-08-20T02:20:54;10.15;;;2.15;;
23260;SDS011;11799;47.740;-3.390;2023-08-20T02:23:19;7.15;;;2.10;;
23260;SDS011;11799;47.740;-3.390;2023-08-20T02:25:45;5.28;;;2.35;;
23260;SDS011;11799;47.740;-3.390;2023-08-20T02:28:11;10.68;;;2.65;;
23260;SDS011;11799;47.740;-3.390;2023-08-20T02:30:41;8.73;;;2.35;;
23260;SDS011;11799;47.740;-3.390;2023-08-20T02:33:08;6.05;;;2.33;;
23260;SDS011;11799;47.740;-3.390;2023-08-20T02:35:35;7.68;;;2.60;;
23260;SDS011;11799;47.740;-3.390;2023-08-20T02:38:01;9.82;;;2.70;;
23260;SDS011;11799;47.740;-3.390;2023-08-20T02:40:27;9.07;;;2.47;;
23260;SDS011;11799;47.740;-3.390;2023-08-20T02:42:52;7.95;;;2.42;;
23260;SDS011;11799;47.740;-3.390;2023-08-20T02:45:18;8.18;;;3.03;;
23260;SDS011;11799;47.740;-3.390;2023-08-20T02:47:43;10.23;;;2.75;;
23260;SDS011;11799;47.740;-3.390;2023-08-20T02:50:09;5.93;;;2.50;;
23260;SDS011;11799;47.740;-3.390;2023-08-20T02:52:35;7.97;;;2.50;;
23260;SDS011;11799;47.740;-3.390;2023-08-20T02:55:00;7.68;;;2.20;;
23260;SDS011;11799;47.740;-3.390;2023-08-20T02:57:26;6.72;;;2.40;;
23260;SDS011;11799;47.740;-3.390;2023-08-20T02:59:51;8.10;;;2.47;;
23260;SDS011;11799;47.740;-3.390;2023-08-20T03:02:17;4.13;;;2.35;;
23260;SDS011;11799;47.740;-3.390;2023-08-20T03:04:43;6.30;;;2.38;;
23260;SDS011;11799;47.740;-3.390;2023-08-20T03:07:08;8.02;;;2.95;;
23260;SDS011;11799;47.740;-3.390;2023-08-20T03:09:34;6.47;;;2.78;;
23260;SDS011;11799;47.740;-3.390;2023-08-20T03:11:59;6.32;;;2.70;;
23260;SDS011;11799;47.740;-3.390;2023-08-20T03:14:25;3.95;;;2.42;;
23260;SDS011;11799;47.740;-3.390;2023-08-20T03:16:50;7.18;;;2.20;;
23260;SDS011;11799;47.740;-3.390;2023-08-20T03:19:16;16.42;;;2.92;;
23260;SDS011;11799;47.740;-3.390;2023-08-20T03:21:41;7.47;;;3.05;;
23260;SDS011;11799;47.740;-3.390;2023-08-20T03:24:07;8.50;;;2.78;;
23260;SDS011;11799;47.740;-3.390;2023-08-20T03:26:33;7.38;;;3.05;;
23260;SDS011;11799;47.740;-3.390;2023-08-20T03:28:59;6.15;;;2.80;;
23260;SDS011;11799;47.740;-3.390;2023-08-20T03:31:24;6.60;;;2.90;;
23260;SDS011;11799;47.740;-3.390;2023-08-20T03:33:50;7.40;;;2.80;;
23260;SDS011;11799;47.740;-3.390;2023-08-20T03:36:16;5.13;;;2.92;;
23260;SDS011;11799;47.740;-3.390;2023-08-20T03:38:42;9.95;;;2.92;;
23260;SDS011;11799;47.740;-3.390;2023-08-20T03:41:08;5.30;;;2.70;;
23260;SDS011;11799;47.740;-3.390;2023-08-20T03:43:34;5.45;;;2.70;;
23260;SDS011;11799;47.740;-3.390;2023-08-20T03:46:01;6.13;;;3.13;;
23260;SDS011;11799;47.740;-3.390;2023-08-20T03:48:26;5.68;;;2.85;;
23260;SDS011;11799;47.740;-3.390;2023-08-20T03:50:52;8.52;;;3.13;;
23260;SDS011;11799;47.740;-3.390;2023-08-20T03:53:17;6.90;;;3.40;;
23260;SDS011;11799;47.740;-3.390;2023-08-20T03:55:49;8.88;;;3.50;;
23260;SDS011;11799;47.740;-3.390;2023-08-20T03:58:15;6.45;;;3.72;;
23260;SDS011;11799;47.740;-3.390;2023-08-20T04:00:41;7.10;;;3.88;;
23260;SDS011;11799;47.740;-3.390;2023-08-20T04:03:07;12.68;;;4.15;;
23260;SDS011;11799;47.740;-3.390;2023-08-20T04:05:36;10.55;;;4.90;;
23260;SDS011;11799;47.740;-3.390;2023-08-20T04:08:03;13.85;;;4.53;;
23260;SDS011;11799;47.740;-3.390;2023-08-20T04:10:29;11.25;;;4.32;;
23260;SDS011;11799;47.740;-3.390;2023-08-20T04:12:56;9.32;;;3.95;;
23260;SDS011;11799;47.740;-3.390;2023-08-20T04:15:22;9.52;;;4.30;;
23260;SDS011;11799;47.740;-3.390;2023-08-20T04:17:48;15.00;;;4.93;;
23260;SDS011;11799;47.740;-3.390;2023-08-20T04:20:15;15.98;;;4.60;;
23260;SDS011;11799;47.740;-3.390;2023-08-20T04:22:40;13.32;;;4.45;;
23260;SDS011;11799;47.740;-3.390;2023-08-20T04:25:07;8.85;;;3.75;;
23260;SDS011;11799;47.740;-3.390;2023-08-20T04:27:32;11.45;;;4.80;;
23260;SDS011;11799;47.740;-3.390;2023-08-20T04:29:58;9.55;;;4.22;;
23260;SDS011;11799;47.740;-3.390;2023-08-20T04:32:24;8.43;;;4.13;;
23260;SDS011;11799;47.740;-3.390;2023-08-20T04:34:50;8.02;;;3.88;;
23260;SDS011;11799;47.740;-3.390;2023-08-20T04:37:19;5.70;;;3.80;;
23260;SDS011;11799;47.740;-3.390;2023-08-20T04:39:45;5.78;;;4.07;;
23260;SDS011;11799;47.740;-3.390;2023-08-20T04:42:11;5.38;;;3.72;;
23260;SDS011;11799;47.740;-3.390;2023-08-20T04:44:36;6.18;;;3.55;;
23260;SDS011;11799;47.740;-3.390;2023-08-20T04:47:02;9.43;;;3.65;;
23260;SDS011;11799;47.740;-3.390;2023-08-20T04:49:30;5.63;;;3.17;;
23260;SDS011;11799;47.740;-3.390;2023-08-20T04:51:58;5.45;;;3.05;;
23260;SDS011;11799;47.740;-3.390;2023-08-20T04:54:25;4.35;;;2.60;;
23260;SDS011;11799;47.740;-3.390;2023-08-20T04:56:51;6.78;;;2.70;;
23260;SDS011;11799;47.740;-3.390;2023-08-20T04:59:16;4.30;;;2.40;;
23260;SDS011;11799;47.740;-3.390;2023-08-20T05:02:05;4.93;;;2.28;;
23260;SDS011;11799;47.740;-3.390;2023-08-20T05:04:39;3.65;;;2.28;;
23260;SDS011;11799;47.740;-3.390;2023-08-20T05:07:05;2.50;;;2.30;;
23260;SDS011;11799;47.740;-3.390;2023-08-20T05:09:31;8.20;;;2.60;;
23260;SDS011;11799;47.740;-3.390;2023-08-20T05:11:57;3.10;;;2.00;;
23260;SDS011;11799;47.740;-3.390;2023-08-20T05:14:23;3.00;;;2.40;;
23260;SDS011;11799;47.740;-3.390;2023-08-20T05:16:49;2.22;;;2.03;;
23260;SDS011;11799;47.740;-3.390;2023-08-20T05:19:14;3.15;;;2.20;;
23260;SDS011;11799;47.740;-3.390;2023-08-20T05:21:40;4.50;;;2.50;;
23260;SDS011;11799;47.740;-3.390;2023-08-20T05:24:05;8.90;;;2.60;;
23260;SDS011;11799;47.740;-3.390;2023-08-20T05:26:31;6.85;;;2.25;;
23260;SDS011;11799;47.740;-3.390;2023-08-20T05:28:57;2.58;;;2.38;;
23260;SDS011;11799;47.740;-3.390;2023-08-20T05:31:23;8.85;;;2.78;;
23260;SDS011;11799;47.740;-3.390;2023-08-20T05:33:49;4.22;;;2.63;;
23260;SDS011;11799;47.740;-3.390;2023-08-20T05:36:14;5.55;;;2.60;;
23260;SDS011;11799;47.740;-3.390;2023-08-20T05:38:41;4.10;;;2.22;;
23260;SDS011;11799;47.740;-3.390;2023-08-20T05:41:09;7.10;;;2.70;;
23260;SDS011;11799;47.740;-3.390;2023-08-20T05:43:35;2.58;;;2.38;;
23260;SDS011;11799;47.740;-3.390;2023-08-20T05:46:04;19.40;;;2.97;;
23260;SDS011;11799;47.740;-3.390;2023-08-20T05:48:30;6.15;;;2.78;;
23260;SDS011;11799;47.740;-3.390;2023-08-20T05:50:55;5.28;;;2.60;;
23260;SDS011;11799;47.740;-3.390;2023-08-20T05:53:24;20.23;;;2.67;;
23260;SDS011;11799;47.740;-3.390;2023-08-20T05:55:50;2.35;;;2.15;;
23260;SDS011;11799;47.740;-3.390;2023-08-20T05:58:15;5.40;;;2.20;;
23260;SDS011;11799;47.740;-3.390;2023-08-20T06:00:41;4.45;;;2.38;;
23260;SDS011;11799;47.740;-3.390;2023-08-20T06:03:06;6.43;;;2.03;;
23260;SDS011;11799;47.740;-3.390;2023-08-20T06:05:33;2.10;;;1.90;;
23260;SDS011;11799;47.740;-3.390;2023-08-20T06:07:59;4.25;;;1.83;;
23260;SDS011;11799;47.740;-3.390;2023-08-20T06:10:25;3.95;;;1.95;;
23260;SDS011;11799;47.740;-3.390;2023-08-20T06:12:51;11.00;;;2.00;;
23260;SDS011;11799;47.740;-3.390;2023-08-20T06:15:17;5.28;;;2.00;;
23260;SDS011;11799;47.740;-3.390;2023-08-20T06:17:43;9.07;;;1.50;;
23260;SDS011;11799;47.740;-3.390;2023-08-20T06:20:09;3.40;;;1.95;;
23260;SDS011;11799;47.740;-3.390;2023-08-20T06:22:37;2.28;;;2.08;;
23260;SDS011;11799;47.740;-3.390;2023-08-20T06:25:05;3.05;;;2.20;;
23260;SDS011;11799;47.740;-3.390;2023-08-20T06:27:31;6.57;;;2.05;;
23260;SDS011;11799;47.740;-3.390;2023-08-20T06:29:57;4.20;;;2.03;;
23260;SDS011;11799;47.740;-3.390;2023-08-20T06:32:23;8.80;;;1.83;;
23260;SDS011;11799;47.740;-3.390;2023-08-20T06:34:49;9.70;;;2.10;;
23260;SDS011;11799;47.740;-3.390;2023-08-20T06:37:15;6.90;;;1.98;;
23260;SDS011;11799;47.740;-3.390;2023-08-20T06:39:40;6.82;;;1.77;;
23260;SDS011;11799;47.740;-3.390;2023-08-20T06:42:06;4.32;;;2.00;;
23260;SDS011;11799;47.740;-3.390;2023-08-20T06:44:31;5.35;;;1.63;;
23260;SDS011;11799;47.740;-3.390;2023-08-20T06:46:57;2.03;;;1.83;;
23260;SDS011;11799;47.740;-3.390;2023-08-20T06:49:22;21.05;;;2.10;;
23260;SDS011;11799;47.740;-3.390;2023-08-20T06:51:48;2.70;;;1.90;;
23260;SDS011;11799;47.740;-3.390;2023-08-20T06:54:14;2.55;;;2.22;;
23260;SDS011;11799;47.740;-3.390;2023-08-20T06:56:43;5.00;;;1.92;;
23260;SDS011;11799;47.740;-3.390;2023-08-20T06:59:09;3.70;;;1.98;;
23260;SDS011;11799;47.740;-3.390;2023-08-20T07:01:35;3.20;;;1.83;;
23260;SDS011;11799;47.740;-3.390;2023-08-20T07:04:01;3.17;;;2.15;;
23260;SDS011;11799;47.740;-3.390;2023-08-20T07:06:27;7.60;;;2.20;;
23260;SDS011;11799;47.740;-3.390;2023-08-20T07:08:53;6.50;;;2.25;;
23260;SDS011;11799;47.740;-3.390;2023-08-20T07:11:18;2.50;;;2.30;;
23260;SDS011;11799;47.740;-3.390;2023-08-20T07:13:44;3.28;;;2.47;;
23260;SDS011;11799;47.740;-3.390;2023-08-20T07:16:09;2.22;;;2.03;;
23260;SDS011;11799;47.740;-3.390;2023-08-20T07:18:35;2.67;;;2.20;;
23260;SDS011;11799;47.740;-3.390;2023-08-20T07:21:01;2.55;;;2.22;;
23260;SDS011;11799;47.740;-3.390;2023-08-20T07:23:27;10.85;;;2.38;;
23260;SDS011;11799;47.740;-3.390;2023-08-20T07:26:04;6.82;;;2.20;;
23260;SDS011;11799;47.740;-3.390;2023-08-20T07:28:34;4.20;;;2.30;;
23260;SDS011;11799;47.740;-3.390;2023-08-20T07:31:19;3.50;;;2.10;;
23260;SDS011;11799;47.740;-3.390;2023-08-20T07:33:48;4.40;;;2.83;;
23260;SDS011;11799;47.740;-3.390;2023-08-20T07:36:15;5.63;;;2.53;;
23260;SDS011;11799;47.740;-3.390;2023-08-20T07:38:41;5.97;;;3.45;;
23260;SDS011;11799;47.740;-3.390;2023-08-20T07:41:10;6.85;;;2.95;;
23260;SDS011;11799;47.740;-3.390;2023-08-20T07:43:37;5.65;;;2.88;;
23260;SDS011;11799;47.740;-3.390;2023-08-20T07:46:03;6.43;;;2.65;;
23260;SDS011;11799;47.740;-3.390;2023-08-20T07:48:29;3.00;;;2.60;;
23260;SDS011;11799;47.740;-3.390;2023-08-20T07:50:54;5.30;;;3.30;;
23260;SDS011;11799;47.740;-3.390;2023-08-20T07:53:20;4.78;;;2.35;;
23260;SDS011;11799;47.740;-3.390;2023-08-20T07:55:45;5.25;;;3.38;;
23260;SDS011;11799;47.740;-3.390;2023-08-20T07:58:11;5.07;;;3.45;;
23260;SDS011;11799;47.740;-3.390;2023-08-20T08:00:37;5.72;;;3.20;;
23260;SDS011;11799;47.740;-3.390;2023-08-20T08:03:02;5.68;;;3.33;;
23260;SDS011;11799;47.740;-3.390;2023-08-20T08:05:28;2.50;;;2.30;;
23260;SDS011;11799;47.740;-3.390;2023-08-20T08:07:54;5.20;;;2.72;;
23260;SDS011;11799;47.740;-3.390;2023-08-20T08:10:20;3.85;;;2.92;;
23260;SDS011;11799;47.740;-3.390;2023-08-20T08:12:45;3.83;;;2.60;;
23260;SDS011;11799;47.740;-3.390;2023-08-20T08:15:11;3.83;;;2.40;;
23260;SDS011;11799;47.740;-3.390;2023-08-20T08:17:37;2.67;;;2.13;;
23260;SDS011;11799;47.740;-3.390;2023-08-20T08:20:03;4.88;;;2.50;;
23260;SDS011;11799;47.740;-3.390;2023-08-20T08:22:28;5.32;;;3.05;;
23260;SDS011;11799;47.740;-3.390;2023-08-20T08:24:54;4.40;;;3.03;;
23260;SDS011;11799;47.740;-3.390;2023-08-20T08:27:19;4.63;;;2.60;;
23260;SDS011;11799;47.740;-3.390;2023-08-20T08:29:45;4.30;;;2.72;;
23260;SDS011;11799;47.740;-3.390;2023-08-20T08:32:10;3.65;;;2.72;;
23260;SDS011;11799;47.740;-3.390;2023-08-20T08:34:36;7.63;;;3.17;;
23260;SDS011;11799;47.740;-3.390;2023-08-20T08:37:01;6.38;;;2.60;;
23260;SDS011;11799;47.740;-3.390;2023-08-20T08:39:27;5.03;;;2.58;;
23260;SDS011;11799;47.740;-3.390;2023-08-20T08:41:54;4.55;;;2.67;;
23260;SDS011;11799;47.740;-3.390;2023-08-20T08:44:26;4.05;;;2.15;;
23260;SDS011;11799;47.740;-3.390;2023-08-20T08:46:53;4.82;;;3.17;;
23260;SDS011;11799;47.740;-3.390;2023-08-20T08:49:18;5.07;;;2.20;;
23260;SDS011;11799;47.740;-3.390;2023-08-20T08:51:44;3.90;;;2.13;;
23260;SDS011;11799;47.740;-3.390;2023-08-20T08:54:11;5.43;;;1.90;;
23260;SDS011;11799;47.740;-3.390;2023-08-20T08:56:38;5.65;;;2.05;;
23260;SDS011;11799;47.740;-3.390;2023-08-20T08:59:04;5.60;;;2.42;;
23260;SDS011;11799;47.740;-3.390;2023-08-20T09:01:30;8.70;;;1.90;;
23260;SDS011;11799;47.740;-3.390;2023-08-20T09:03:56;3.50;;;1.98;;
23260;SDS011;11799;47.740;-3.390;2023-08-20T09:06:22;6.78;;;2.08;;
23260;SDS011;11799;47.740;-3.390;2023-08-20T09:08:47;6.80;;;1.88;;
23260;SDS011;11799;47.740;-3.390;2023-08-20T09:11:13;5.38;;;1.65;;
23260;SDS011;11799;47.740;-3.390;2023-08-20T09:13:39;8.23;;;1.85;;
23260;SDS011;11799;47.740;-3.390;2023-08-20T09:16:08;3.83;;;1.65;;
23260;SDS011;11799;47.740;-3.390;2023-08-20T09:18:38;5.38;;;1.67;;
23260;SDS011;11799;47.740;-3.390;2023-08-20T09:21:09;4.53;;;1.55;;
23260;SDS011;11799;47.740;-3.390;2023-08-20T09:23:36;6.35;;;1.67;;
23260;SDS011;11799;47.740;-3.390;2023-08-20T09:26:03;8.05;;;1.55;;
23260;SDS011;11799;47.740;-3.390;2023-08-20T09:28:53;8.07;;;1.77;;
23260;SDS011;11799;47.740;-3.390;2023-08-20T09:31:15;4.05;;;1.45;;
23260;SDS011;11799;47.740;-3.390;2023-08-20T09:33:53;8.07;;;1.65;;
23260;SDS011;11799;47.740;-3.390;2023-08-20T09:36:29;6.38;;;1.80;;
23260;SDS011;11799;47.740;-3.390;2023-08-20T09:39:00;5.95;;;1.70;;
23260;SDS011;11799;47.740;-3.390;2023-08-20T09:41:27;7.38;;;1.70;;
23260;SDS011;11799;47.740;-3.390;2023-08-20T09:43:57;5.85;;;1.63;;
23260;SDS011;11799;47.740;-3.390;2023-08-20T09:46:23;3.60;;;1.23;;
23260;SDS011;11799;47.740;-3.390;2023-08-20T09:48:50;5.38;;;1.58;;
23260;SDS011;11799;47.740;-3.390;2023-08-20T09:51:18;7.10;;;1.80;;
23260;SDS011;11799;47.740;-3.390;2023-08-20T09:53:51;6.88;;;1.70;;
23260;SDS011;11799;47.740;-3.390;2023-08-20T09:56:30;5.32;;;1.70;;
23260;SDS011;11799;47.740;-3.390;2023-08-20T09:59:03;5.88;;;1.60;;
23260;SDS011;11799;47.740;-3.390;2023-08-20T10:01:29;4.90;;;1.70;;
23260;SDS011;11799;47.740;-3.390;2023-08-20T10:03:55;5.47;;;1.50;;
23260;SDS011;11799;47.740;-3.390;2023-08-20T10:06:21;7.10;;;1.60;;
23260;SDS011;11799;47.740;-3.390;2023-08-20T10:08:50;7.40;;;1.70;;
23260;SDS011;11799;47.740;-3.390;2023-08-20T10:11:16;5.25;;;1.83;;
23260;SDS011;11799;47.740;-3.390;2023-08-20T10:13:42;5.78;;;1.73;;
23260;SDS011;11799;47.740;-3.390;2023-08-20T10:16:08;4.95;;;1.48;;
23260;SDS011;11799;47.740;-3.390;2023-08-20T10:18:36;4.90;;;1.77;;
23260;SDS011;11799;47.740;-3.390;2023-08-20T10:21:02;9.85;;;2.28;;
23260;SDS011;11799;47.740;-3.390;2023-08-20T10:23:30;4.90;;;1.80;;
23260;SDS011;11799;47.740;-3.390;2023-08-20T10:25:55;4.97;;;1.95;;
23260;SDS011;11799;47.740;-3.390;2023-08-20T10:28:32;7.47;;;1.55;;
23260;SDS011;11799;47.740;-3.390;2023-08-20T10:33:34;4.30;;;1.50;;
23260;SDS011;11799;47.740;-3.390;2023-08-20T10:36:20;5.25;;;1.90;;
23260;SDS011;11799;47.740;-3.390;2023-08-20T10:38:56;5.18;;;1.52;;
23260;SDS011;11799;47.740;-3.390;2023-08-20T10:41:26;4.38;;;1.55;;
23260;SDS011;11799;47.740;-3.390;2023-08-20T10:43:54;6.88;;;1.52;;
23260;SDS011;11799;47.740;-3.390;2023-08-20T10:46:23;4.30;;;1.45;;
23260;SDS011;11799;47.740;-3.390;2023-08-20T10:48:51;6.72;;;1.63;;
23260;SDS011;11799;47.740;-3.390;2023-08-20T10:56:44;7.80;;;1.30;;
23260;SDS011;11799;47.740;-3.390;2023-08-20T10:59:20;7.32;;;1.50;;
23260;SDS011;11799;47.740;-3.390;2023-08-20T11:01:48;7.55;;;1.67;;
23260;SDS011;11799;47.740;-3.390;2023-08-20T11:04:15;6.85;;;1.50;;
23260;SDS011;11799;47.740;-3.390;2023-08-20T11:06:43;4.50;;;1.63;;
23260;SDS011;11799;47.740;-3.390;2023-08-20T11:09:09;19.10;;;1.88;;
23260;SDS011;11799;47.740;-3.390;2023-08-20T11:11:37;4.60;;;1.20;;
23260;SDS011;11799;47.740;-3.390;2023-08-20T11:14:07;5.38;;;1.30;;
23260;SDS011;11799;47.740;-3.390;2023-08-20T11:16:34;2.60;;;1.05;;
23260;SDS011;11799;47.740;-3.390;2023-08-20T11:19:00;4.45;;;1.50;;
23260;SDS011;11799;47.740;-3.390;2023-08-20T11:21:27;9.02;;;1.42;;
23260;SDS011;11799;47.740;-3.390;2023-08-20T11:23:54;5.63;;;1.50;;
23260;SDS011;11799;47.740;-3.390;2023-08-20T11:26:20;5.03;;;1.20;;
23260;SDS011;11799;47.740;-3.390;2023-08-20T11:28:46;4.85;;;1.10;;
23260;SDS011;11799;47.740;-3.390;2023-08-20T11:31:12;5.65;;;1.25;;
23260;SDS011;11799;47.740;-3.390;2023-08-20T11:33:38;3.42;;;1.08;;
23260;SDS011;11799;47.740;-3.390;2023-08-20T11:36:05;3.80;;;1.00;;
23260;SDS011;11799;47.740;-3.390;2023-08-20T11:38:30;2.28;;;0.90;;
23260;SDS011;11799;47.740;-3.390;2023-08-20T11:40:57;3.70;;;1.20;;
23260;SDS011;11799;47.740;-3.390;2023-08-20T11:43:24;4.15;;;0.90;;
23260;SDS011;11799;47.740;-3.390;2023-08-20T11:45:52;3.83;;;1.08;;
23260;SDS011;11799;47.740;-3.390;2023-08-20T11:48:19;2.95;;;1.00;;
23260;SDS011;11799;47.740;-3.390;2023-08-20T11:50:46;4.05;;;1.00;;
23260;SDS011;11799;47.740;-3.390;2023-08-20T11:53:12;3.28;;;0.82;;
23260;SDS011;11799;47.740;-3.390;2023-08-20T11:55:40;4.40;;;1.30;;
23260;SDS011;11799;47.740;-3.390;2023-08-20T11:58:13;9.00;;;1.53;;
23260;SDS011;11799;47.740;-3.390;2023-08-20T12:00:39;4.57;;;1.13;;
23260;SDS011;11799;47.740;-3.390;2023-08-20T12:03:07;5.97;;;1.20;;
23260;SDS011;11799;47.740;-3.390;2023-08-20T12:05:33;4.95;;;1.23;;
23260;SDS011;11799;47.740;-3.390;2023-08-20T12:07:59;4.30;;;1.40;;
23260;SDS011;11799;47.740;-3.390;2023-08-20T12:10:27;7.30;;;1.50;;
23260;SDS011;11799;47.740;-3.390;2023-08-20T12:12:54;6.55;;;1.45;;
23260;SDS011;11799;47.740;-3.390;2023-08-20T12:15:20;5.35;;;1.30;;
23260;SDS011;11799;47.740;-3.390;2023-08-20T12:18:03;4.53;;;1.50;;
23260;SDS011;11799;47.740;-3.390;2023-08-20T12:20:31;4.40;;;1.10;;
23260;SDS011;11799;47.740;-3.390;2023-08-20T12:23:00;4.47;;;1.47;;
23260;SDS011;11799;47.740;-3.390;2023-08-20T12:25:29;1.83;;;0.95;;
23260;SDS011;11799;47.740;-3.390;2023-08-20T12:27:55;5.43;;;1.20;;
23260;SDS011;11799;47.740;-3.390;2023-08-20T12:30:21;2.85;;;1.00;;
23260;SDS011;11799;47.740;-3.390;2023-08-20T12:32:47;2.60;;;0.95;;
23260;SDS011;11799;47.740;-3.390;2023-08-20T12:35:12;4.25;;;1.08;;
23260;SDS011;11799;47.740;-3.390;2023-08-20T12:37:38;4.10;;;0.95;;
23260;SDS011;11799;47.740;-3.390;2023-08-20T12:40:04;2.65;;;1.13;;
23260;SDS011;11799;47.740;-3.390;2023-08-20T12:42:33;4.35;;;1.20;;
23260;SDS011;11799;47.740;-3.390;2023-08-20T12:44:59;3.85;;;1.10;;
23260;SDS011;11799;47.740;-3.390;2023-08-20T12:47:25;3.65;;;1.10;;
23260;SDS011;11799;47.740;-3.390;2023-08-20T12:49:50;3.45;;;1.02;;
23260;SDS011;11799;47.740;-3.390;2023-08-20T12:52:16;3.58;;;1.17;;
23260;SDS011;11799;47.740;-3.390;2023-08-20T12:54:41;4.35;;;0.95;;
23260;SDS011;11799;47.740;-3.390;2023-08-20T12:57:07;3.08;;;1.30;;
23260;SDS011;11799;47.740;-3.390;2023-08-20T12:59:32;1.70;;;1.00;;
23260;SDS011;11799;47.740;-3.390;2023-08-20T13:01:58;2.63;;;1.00;;
23260;SDS011;11799;47.740;-3.390;2023-08-20T13:04:23;4.10;;;1.10;;
23260;SDS011;11799;47.740;-3.390;2023-08-20T13:06:49;1.33;;;0.70;;
23260;SDS011;11799;47.740;-3.390;2023-08-20T13:09:15;2.55;;;0.90;;
23260;SDS011;11799;47.740;-3.390;2023-08-20T13:11:42;3.08;;;1.27;;
23260;SDS011;11799;47.740;-3.390;2023-08-20T13:14:09;1.60;;;0.70;;
23260;SDS011;11799;47.740;-3.390;2023-08-20T13:16:35;3.95;;;0.88;;
23260;SDS011;11799;47.740;-3.390;2023-08-20T13:19:01;1.42;;;0.60;;
23260;SDS011;11799;47.740;-3.390;2023-08-20T13:21:27;4.22;;;1.00;;
23260;SDS011;11799;47.740;-3.390;2023-08-20T13:23:53;3.90;;;1.05;;
23260;SDS011;11799;47.740;-3.390;2023-08-20T13:26:19;4.45;;;1.10;;
23260;SDS011;11799;47.740;-3.390;2023-08-20T13:28:47;2.45;;;0.90;;
23260;SDS011;11799;47.740;-3.390;2023-08-20T13:31:13;2.03;;;0.80;;
23260;SDS011;11799;47.740;-3.390;2023-08-20T13:33:39;2.60;;;0.70;;
23260;SDS011;11799;47.740;-3.390;2023-08-20T13:36:05;3.60;;;0.82;;
23260;SDS011;11799;47.740;-3.390;2023-08-20T13:38:32;3.17;;;0.93;;
23260;SDS011;11799;47.740;-3.390;2023-08-20T13:40:58;3.72;;;0.70;;
23260;SDS011;11799;47.740;-3.390;2023-08-20T13:43:23;5.10;;;1.25;;
23260;SDS011;11799;47.740;-3.390;2023-08-20T13:45:49;3.80;;;1.00;;
23260;SDS011;11799;47.740;-3.390;2023-08-20T13:48:14;1.85;;;0.80;;
23260;SDS011;11799;47.740;-3.390;2023-08-20T13:50:40;3.92;;;1.08;;
23260;SDS011;11799;47.740;-3.390;2023-08-20T13:53:05;3.85;;;0.88;;
23260;SDS011;11799;47.740;-3.390;2023-08-20T13:55:31;2.42;;;0.82;;
23260;SDS011;11799;47.740;-3.390;2023-08-20T13:57:56;4.38;;;1.08;;
23260;SDS011;11799;47.740;-3.390;2023-08-20T14:00:22;5.30;;;1.20;;
23260;SDS011;11799;47.740;-3.390;2023-08-20T14:02:48;6.43;;;1.10;;
23260;SDS011;11799;47.740;-3.390;2023-08-20T14:05:13;4.75;;;0.98;;
23260;SDS011;11799;47.740;-3.390;2023-08-20T14:07:39;3.13;;;1.35;;
23260;SDS011;11799;47.740;-3.390;2023-08-20T14:10:05;3.20;;;1.00;;
23260;SDS011;11799;47.740;-3.390;2023-08-20T14:12:31;2.72;;;1.00;;
23260;SDS011;11799;47.740;-3.390;2023-08-20T14:14:57;7.60;;;1.10;;
23260;SDS011;11799;47.740;-3.390;2023-08-20T14:17:22;4.13;;;0.90;;
23260;SDS011;11799;47.740;-3.390;2023-08-20T14:19:48;2.88;;;0.90;;
23260;SDS011;11799;47.740;-3.390;2023-08-20T14:22:13;1.73;;;0.80;;
23260;SDS011;11799;47.740;-3.390;2023-08-20T14:24:39;2.97;;;1.25;;
23260;SDS011;11799;47.740;-3.390;2023-08-20T14:27:04;3.10;;;0.85;;
23260;SDS011;11799;47.740;-3.390;2023-08-20T14:29:32;3.15;;;0.90;;
23260;SDS011;11799;47.740;-3.390;2023-08-20T14:31:58;4.10;;;1.25;;
23260;SDS011;11799;47.740;-3.390;2023-08-20T14:34:23;3.58;;;0.90;;
23260;SDS011;11799;47.740;-3.390;2023-08-20T14:36:49;2.83;;;0.90;;
23260;SDS011;11799;47.740;-3.390;2023-08-20T14:39:14;6.05;;;1.63;;
23260;SDS011;11799;47.740;-3.390;2023-08-20T14:41:40;2.88;;;0.90;;
23260;SDS011;11799;47.740;-3.390;2023-08-20T14:44:06;3.72;;;0.90;;